sensor_id;sensor_type;location;lat;lon;timestamp;temperature;humidity
9939;DHT22;5008;50.656;7.188;2023-07-16T03:43:42;19.00;99.90
9939;DHT22;5008;50.656;7.188;2023-07-16T03:46:25;19.00;99.90
9939;DHT22;5008;50.656;7.188;2023-07-16T03:48:55;18.90;99.90
9939;DHT22;5008;50.656;7.188;2023-07-16T03:51:22;18.90;99.90
9939;DHT22;5008;50.656;7.188;2023-07-16T03:53:52;18.90;99.90
9939;DHT22;5008;50.656;7.188;2023-07-16T03:56:21;18.90;99.90
9939;DHT22;5008;50.656;7.188;2023-07-16T03:58:50;18.90;99.90
9939;DHT22;5008;50.656;7.188;2023-07-16T04:01:16;18.80;99.90
9939;DHT22;5008;50.656;7.188;2023-07-16T04:03:43;18.80;99.90
9939;DHT22;5008;50.656;7.188;2023-07-16T04:06:11;18.90;99.90
9939;DHT22;5008;50.656;7.188;2023-07-16T04:08:38;18.80;99.90
9939;DHT22;5008;50.656;7.188;2023-07-16T04:11:05;18.80;99.90
9939;DHT22;5008;50.656;7.188;2023-07-16T04:13:32;18.80;99.90
9939;DHT22;5008;50.656;7.188;2023-07-16T04:16:01;18.80;99.90
9939;DHT22;5008;50.656;7.188;2023-07-16T04:18:28;18.80;99.90
9939;DHT22;5008;50.656;7.188;2023-07-16T04:20:54;18.90;99.90
9939;DHT22;5008;50.656;7.188;2023-07-16T04:23:22;18.90;99.90
9939;DHT22;5008;50.656;7.188;2023-07-16T04:25:51;18.80;99.90
9939;DHT22;5008;50.656;7.188;2023-07-16T04:28:18;18.90;99.90
9939;DHT22;5008;50.656;7.188;2023-07-16T04:30:45;18.90;99.90
9939;DHT22;5008;50.656;7.188;2023-07-16T04:33:13;18.90;99.90
9939;DHT22;5008;50.656;7.188;2023-07-16T04:35:40;18.90;99.90
9939;DHT22;5008;50.656;7.188;2023-07-16T04:38:07;18.90;99.90
9939;DHT22;5008;50.656;7.188;2023-07-16T04:40:34;19.00;99.90
9939;DHT22;5008;50.656;7.188;2023-07-16T04:43:01;19.00;99.90
9939;DHT22;5008;50.656;7.188;2023-07-16T04:45:28;19.10;99.90
9939;DHT22;5008;50.656;7.188;2023-07-16T04:47:55;19.10;99.90
9939;DHT22;5008;50.656;7.188;2023-07-16T04:50:23;19.20;99.90
9939;DHT22;5008;50.656;7.188;2023-07-16T04:52:50;19.40;99.90
9939;DHT22;5008;50.656;7.188;2023-07-16T04:55:16;19.40;99.90
9939;DHT22;5008;50.656;7.188;2023-07-16T04:57:43;19.30;99.90
9939;DHT22;5008;50.656;7.188;2023-07-16T05:00:11;19.30;99.90
9939;DHT22;5008;50.656;7.188;2023-07-16T05:02:38;19.30;99.90
9939;DHT22;5008;50.656;7.188;2023-07-16T05:05:05;19.40;99.90
9939;DHT22;5008;50.656;7.188;2023-07-16T05:07:33;19.60;99.90
9939;DHT22;5008;50.656;7.188;2023-07-16T05:10:00;19.60;99.90
9939;DHT22;5008;50.656;7.188;2023-07-16T05:12:27;19.50;99.90
9939;DHT22;5008;50.656;7.188;2023-07-16T05:14:54;19.50;99.90
9939;DHT22;5008;50.656;7.188;2023-07-16T05:17:21;19.60;99.90
9939;DHT22;5008;50.656;7.188;2023-07-16T05:19:48;19.80;99.90
9939;DHT22;5008;50.656;7.188;2023-07-16T05:22:15;19.70;99.90
9939;DHT22;5008;50.656;7.188;2023-07-16T05:24:44;19.60;99.90
9939;DHT22;5008;50.656;7.188;2023-07-16T05:27:11;19.60;99.90
9939;DHT22;5008;50.656;7.188;2023-07-16T05:29:38;19.60;99.90
9939;DHT22;5008;50.656;7.188;2023-07-16T05:32:06;19.60;99.90
9939;DHT22;5008;50.656;7.188;2023-07-16T05:34:33;19.60;99.90
9939;DHT22;5008;50.656;7.188;2023-07-16T05:37:00;19.60;99.90
9939;DHT22;5008;50.656;7.188;2023-07-16T05:39:26;19.60;99.90
9939;DHT22;5008;50.656;7.188;2023-07-16T05:41:56;19.60;99.90
9939;DHT22;5008;50.656;7.188;2023-07-16T05:44:22;19.70;99.90
9939;DHT22;5008;50.656;7.188;2023-07-16T05:46:49;19.80;99.90
9939;DHT22;5008;50.656;7.188;2023-07-16T05:49:16;19.80;99.90
9939;DHT22;5008;50.656;7.188;2023-07-16T05:51:43;19.90;99.90
9939;DHT22;5008;50.656;7.188;2023-07-16T05:54:10;19.80;99.90
9939;DHT22;5008;50.656;7.188;2023-07-16T05:56:37;19.70;99.90
9939;DHT22;5008;50.656;7.188;2023-07-16T05:59:07;19.80;99.90
9939;DHT22;5008;50.656;7.188;2023-07-16T06:01:33;19.70;99.90
9939;DHT22;5008;50.656;7.188;2023-07-16T06:04:00;19.70;99.90
9939;DHT22;5008;50.656;7.188;2023-07-16T06:06:28;19.80;99.90
9939;DHT22;5008;50.656;7.188;2023-07-16T06:08:56;19.80;99.90
9939;DHT22;5008;50.656;7.188;2023-07-16T06:11:23;19.80;99.90
9939;DHT22;5008;50.656;7.188;2023-07-16T06:13:53;19.80;99.90
9939;DHT22;5008;50.656;7.188;2023-07-16T06:16:21;19.80;99.90
9939;DHT22;5008;50.656;7.188;2023-07-16T06:18:48;19.90;99.90
9939;DHT22;5008;50.656;7.188;2023-07-16T06:21:15;20.00;99.90
9939;DHT22;5008;50.656;7.188;2023-07-16T06:23:42;20.00;99.90
9939;DHT22;5008;50.656;7.188;2023-07-16T06:26:09;20.00;99.90
9939;DHT22;5008;50.656;7.188;2023-07-16T06:28:36;20.10;99.90
9939;DHT22;5008;50.656;7.188;2023-07-16T06:31:02;20.10;99.90
9939;DHT22;5008;50.656;7.188;2023-07-16T06:33:31;20.10;99.90
9939;DHT22;5008;50.656;7.188;2023-07-16T06:35:57;20.20;99.90
9939;DHT22;5008;50.656;7.188;2023-07-16T06:38:24;20.20;99.90
9939;DHT22;5008;50.656;7.188;2023-07-16T06:40:52;20.10;99.90
9939;DHT22;5008;50.656;7.188;2023-07-16T06:43:18;20.10;99.90
9939;DHT22;5008;50.656;7.188;2023-07-16T06:45:45;20.20;99.90
9939;DHT22;5008;50.656;7.188;2023-07-16T06:48:12;20.20;99.90
9939;DHT22;5008;50.656;7.188;2023-07-16T06:50:40;20.20;99.90
9939;DHT22;5008;50.656;7.188;2023-07-16T06:53:07;20.30;99.90
9939;DHT22;5008;50.656;7.188;2023-07-16T06:55:34;20.30;99.90
9939;DHT22;5008;50.656;7.188;2023-07-16T06:58:01;20.40;99.90
9939;DHT22;5008;50.656;7.188;2023-07-16T07:00:28;20.40;99.90
9939;DHT22;5008;50.656;7.188;2023-07-16T07:02:55;20.40;99.90
9939;DHT22;5008;50.656;7.188;2023-07-16T07:05:22;20.40;99.90
9939;DHT22;5008;50.656;7.188;2023-07-16T07:07:51;20.50;99.90
9939;DHT22;5008;50.656;7.188;2023-07-16T07:10:18;20.50;99.90
9939;DHT22;5008;50.656;7.188;2023-07-16T07:12:46;20.50;99.90
9939;DHT22;5008;50.656;7.188;2023-07-16T07:15:13;20.50;99.90
9939;DHT22;5008;50.656;7.188;2023-07-16T07:17:46;20.50;99.90
9939;DHT22;5008;50.656;7.188;2023-07-16T07:20:14;20.50;99.90
9939;DHT22;5008;50.656;7.188;2023-07-16T07:22:41;20.50;99.90
9939;DHT22;5008;50.656;7.188;2023-07-16T07:25:09;20.60;99.90
9939;DHT22;5008;50.656;7.188;2023-07-16T07:27:36;20.60;99.90
9939;DHT22;5008;50.656;7.188;2023-07-16T07:30:04;20.70;99.90
9939;DHT22;5008;50.656;7.188;2023-07-16T07:32:31;20.60;99.90
9939;DHT22;5008;50.656;7.188;2023-07-16T07:35:06;20.60;99.90
9939;DHT22;5008;50.656;7.188;2023-07-16T07:37:33;20.70;99.90
9939;DHT22;5008;50.656;7.188;2023-07-16T07:39:59;20.80;99.90
9939;DHT22;5008;50.656;7.188;2023-07-16T07:42:27;20.70;99.90
9939;DHT22;5008;50.656;7.188;2023-07-16T07:44:54;20.80;99.90
9939;DHT22;5008;50.656;7.188;2023-07-16T07:47:22;20.90;99.90
9939;DHT22;5008;50.656;7.188;2023-07-16T07:49:50;20.80;99.90
9939;DHT22;5008;50.656;7.188;2023-07-16T07:52:17;20.90;99.90
9939;DHT22;5008;50.656;7.188;2023-07-16T07:54:44;21.00;99.90
9939;DHT22;5008;50.656;7.188;2023-07-16T07:57:10;21.00;99.90
9939;DHT22;5008;50.656;7.188;2023-07-16T07:59:38;21.00;99.90
9939;DHT22;5008;50.656;7.188;2023-07-16T08:02:06;21.00;99.90
9939;DHT22;5008;50.656;7.188;2023-07-16T08:04:35;21.10;99.90
9939;DHT22;5008;50.656;7.188;2023-07-16T08:07:03;21.10;99.90
9939;DHT22;5008;50.656;7.188;2023-07-16T08:09:29;21.20;99.90
9939;DHT22;5008;50.656;7.188;2023-07-16T08:11:56;21.20;99.90
9939;DHT22;5008;50.656;7.188;2023-07-16T08:14:23;21.20;99.90
9939;DHT22;5008;50.656;7.188;2023-07-16T08:16:51;21.30;99.90
9939;DHT22;5008;50.656;7.188;2023-07-16T08:19:18;21.30;99.90
9939;DHT22;5008;50.656;7.188;2023-07-16T08:21:45;21.40;99.90
9939;DHT22;5008;50.656;7.188;2023-07-16T08:24:12;21.40;99.90
9939;DHT22;5008;50.656;7.188;2023-07-16T08:26:38;21.50;99.90
9939;DHT22;5008;50.656;7.188;2023-07-16T08:29:05;21.50;99.90
9939;DHT22;5008;50.656;7.188;2023-07-16T08:31:32;21.50;99.90
9939;DHT22;5008;50.656;7.188;2023-07-16T08:37:04;21.60;99.90
9939;DHT22;5008;50.656;7.188;2023-07-16T08:39:31;21.70;99.90
9939;DHT22;5008;50.656;7.188;2023-07-16T08:41:58;21.60;99.90
9939;DHT22;5008;50.656;7.188;2023-07-16T08:44:29;21.70;99.90
9939;DHT22;5008;50.656;7.188;2023-07-16T08:46:56;21.70;99.90
9939;DHT22;5008;50.656;7.188;2023-07-16T08:49:26;21.70;99.90
9939;DHT22;5008;50.656;7.188;2023-07-16T08:51:56;21.80;99.90
9939;DHT22;5008;50.656;7.188;2023-07-16T08:54:23;21.80;99.90
9939;DHT22;5008;50.656;7.188;2023-07-16T08:56:51;21.80;99.90
9939;DHT22;5008;50.656;7.188;2023-07-16T08:59:18;21.80;99.90
9939;DHT22;5008;50.656;7.188;2023-07-16T09:01:47;21.90;99.90
9939;DHT22;5008;50.656;7.188;2023-07-16T09:04:15;21.90;99.90
9939;DHT22;5008;50.656;7.188;2023-07-16T09:06:43;21.90;99.90
9939;DHT22;5008;50.656;7.188;2023-07-16T09:09:19;22.00;99.90
9939;DHT22;5008;50.656;7.188;2023-07-16T09:11:46;22.00;99.90
9939;DHT22;5008;50.656;7.188;2023-07-16T09:14:16;22.10;99.90
9939;DHT22;5008;50.656;7.188;2023-07-16T09:16:43;22.00;99.90
9939;DHT22;5008;50.656;7.188;2023-07-16T09:19:10;22.10;99.50
9939;DHT22;5008;50.656;7.188;2023-07-16T09:21:38;22.00;99.90
9939;DHT22;5008;50.656;7.188;2023-07-16T09:24:08;22.10;99.80
9939;DHT22;5008;50.656;7.188;2023-07-16T09:26:36;22.00;99.90
9939;DHT22;5008;50.656;7.188;2023-07-16T09:29:05;22.00;99.70
9939;DHT22;5008;50.656;7.188;2023-07-16T09:31:32;22.20;99.90
9939;DHT22;5008;50.656;7.188;2023-07-16T09:33:59;22.10;99.90
9939;DHT22;5008;50.656;7.188;2023-07-16T09:36:26;22.20;99.80
9939;DHT22;5008;50.656;7.188;2023-07-16T09:38:53;22.30;99.90
9939;DHT22;5008;50.656;7.188;2023-07-16T09:41:22;22.30;99.90
9939;DHT22;5008;50.656;7.188;2023-07-16T09:43:49;22.40;99.50
9939;DHT22;5008;50.656;7.188;2023-07-16T09:46:15;22.40;99.90
9939;DHT22;5008;50.656;7.188;2023-07-16T09:48:42;22.50;99.40
9939;DHT22;5008;50.656;7.188;2023-07-16T09:51:11;22.50;99.10
9939;DHT22;5008;50.656;7.188;2023-07-16T09:53:41;22.40;98.90
9939;DHT22;5008;50.656;7.188;2023-07-16T09:56:10;22.30;99.40
9939;DHT22;5008;50.656;7.188;2023-07-16T09:58:40;22.40;99.40
9939;DHT22;5008;50.656;7.188;2023-07-16T10:01:08;22.40;99.90
9939;DHT22;5008;50.656;7.188;2023-07-16T10:03:35;22.50;99.50
9939;DHT22;5008;50.656;7.188;2023-07-16T10:06:06;22.80;98.80
9939;DHT22;5008;50.656;7.188;2023-07-16T10:08:34;22.90;98.40
9939;DHT22;5008;50.656;7.188;2023-07-16T10:11:01;22.80;98.50
9939;DHT22;5008;50.656;7.188;2023-07-16T10:13:28;22.70;98.60
9939;DHT22;5008;50.656;7.188;2023-07-16T10:15:57;22.80;98.30
9939;DHT22;5008;50.656;7.188;2023-07-16T10:18:27;22.90;98.50
9939;DHT22;5008;50.656;7.188;2023-07-16T10:21:07;22.80;99.70
9939;DHT22;5008;50.656;7.188;2023-07-16T10:23:40;22.90;99.10
9939;DHT22;5008;50.656;7.188;2023-07-16T10:26:09;23.10;98.00
9939;DHT22;5008;50.656;7.188;2023-07-16T10:28:36;23.10;98.80
9939;DHT22;5008;50.656;7.188;2023-07-16T10:31:21;23.20;98.50
9939;DHT22;5008;50.656;7.188;2023-07-16T10:33:58;23.20;98.30
9939;DHT22;5008;50.656;7.188;2023-07-16T10:36:27;23.10;99.40
9939;DHT22;5008;50.656;7.188;2023-07-16T10:38:54;23.20;98.10
9939;DHT22;5008;50.656;7.188;2023-07-16T10:41:22;23.20;98.30
9939;DHT22;5008;50.656;7.188;2023-07-16T10:43:50;23.30;98.60
9939;DHT22;5008;50.656;7.188;2023-07-16T10:46:20;23.40;97.90
9939;DHT22;5008;50.656;7.188;2023-07-16T10:48:50;23.50;97.50
9939;DHT22;5008;50.656;7.188;2023-07-16T10:51:28;23.40;98.50
9939;DHT22;5008;50.656;7.188;2023-07-16T10:53:56;23.50;99.30
9939;DHT22;5008;50.656;7.188;2023-07-16T10:56:24;23.70;96.80
9939;DHT22;5008;50.656;7.188;2023-07-16T10:58:52;23.80;96.60
9939;DHT22;5008;50.656;7.188;2023-07-16T11:01:21;23.80;97.40
9939;DHT22;5008;50.656;7.188;2023-07-16T11:03:48;23.80;97.70
9939;DHT22;5008;50.656;7.188;2023-07-16T11:06:16;24.00;97.90
9939;DHT22;5008;50.656;7.188;2023-07-16T11:09:06;24.10;96.30
9939;DHT22;5008;50.656;7.188;2023-07-16T11:11:34;24.10;96.10
9939;DHT22;5008;50.656;7.188;2023-07-16T11:14:04;24.00;96.40
9939;DHT22;5008;50.656;7.188;2023-07-16T11:16:34;24.10;95.70
9939;DHT22;5008;50.656;7.188;2023-07-16T11:19:04;24.10;95.60
9939;DHT22;5008;50.656;7.188;2023-07-16T11:21:33;24.20;96.00
9939;DHT22;5008;50.656;7.188;2023-07-16T11:24:13;24.30;95.90
9939;DHT22;5008;50.656;7.188;2023-07-16T11:26:50;24.20;97.00
9939;DHT22;5008;50.656;7.188;2023-07-16T11:29:17;24.20;97.10
9939;DHT22;5008;50.656;7.188;2023-07-16T11:31:53;24.60;95.80
9939;DHT22;5008;50.656;7.188;2023-07-16T11:34:22;24.60;96.10
9939;DHT22;5008;50.656;7.188;2023-07-16T11:36:49;24.50;96.20
9939;DHT22;5008;50.656;7.188;2023-07-16T11:39:16;24.60;95.90
9939;DHT22;5008;50.656;7.188;2023-07-16T11:41:54;24.60;96.40
9939;DHT22;5008;50.656;7.188;2023-07-16T11:44:21;24.30;96.40
9939;DHT22;5008;50.656;7.188;2023-07-16T11:46:50;24.40;95.00
9939;DHT22;5008;50.656;7.188;2023-07-16T11:49:17;24.50;95.30
9939;DHT22;5008;50.656;7.188;2023-07-16T11:51:45;24.50;95.40
9939;DHT22;5008;50.656;7.188;2023-07-16T11:54:12;24.60;95.90
9939;DHT22;5008;50.656;7.188;2023-07-16T11:56:39;24.70;95.40
9939;DHT22;5008;50.656;7.188;2023-07-16T11:59:05;24.90;95.20
9939;DHT22;5008;50.656;7.188;2023-07-16T12:01:32;25.10;96.30
9939;DHT22;5008;50.656;7.188;2023-07-16T12:04:00;25.20;95.00
9939;DHT22;5008;50.656;7.188;2023-07-16T12:06:27;25.20;94.80
9939;DHT22;5008;50.656;7.188;2023-07-16T12:08:54;25.20;94.20
9939;DHT22;5008;50.656;7.188;2023-07-16T12:11:22;25.10;95.60
9939;DHT22;5008;50.656;7.188;2023-07-16T12:13:49;25.10;95.50
9939;DHT22;5008;50.656;7.188;2023-07-16T12:16:15;25.10;94.90
9939;DHT22;5008;50.656;7.188;2023-07-16T12:18:42;25.00;94.80
9939;DHT22;5008;50.656;7.188;2023-07-16T12:21:10;24.90;94.20
9939;DHT22;5008;50.656;7.188;2023-07-16T12:23:37;24.90;93.90
9939;DHT22;5008;50.656;7.188;2023-07-16T12:26:04;24.90;93.90
9939;DHT22;5008;50.656;7.188;2023-07-16T12:28:31;24.90;93.60
9939;DHT22;5008;50.656;7.188;2023-07-16T12:31:00;24.70;93.70
9939;DHT22;5008;50.656;7.188;2023-07-16T12:33:26;24.80;94.50
9939;DHT22;5008;50.656;7.188;2023-07-16T12:35:53;25.00;95.80
9939;DHT22;5008;50.656;7.188;2023-07-16T12:38:21;25.10;94.50
9939;DHT22;5008;50.656;7.188;2023-07-16T12:40:49;25.00;93.40
9939;DHT22;5008;50.656;7.188;2023-07-16T12:43:15;24.80;93.60
9939;DHT22;5008;50.656;7.188;2023-07-16T12:45:42;24.70;93.70
9939;DHT22;5008;50.656;7.188;2023-07-16T12:48:09;24.80;93.70
9939;DHT22;5008;50.656;7.188;2023-07-16T12:50:36;24.80;94.30
9939;DHT22;5008;50.656;7.188;2023-07-16T12:53:02;25.00;94.10
9939;DHT22;5008;50.656;7.188;2023-07-16T12:55:31;25.20;94.50
9939;DHT22;5008;50.656;7.188;2023-07-16T12:57:59;25.20;93.90
9939;DHT22;5008;50.656;7.188;2023-07-16T13:00:26;25.20;94.10
9939;DHT22;5008;50.656;7.188;2023-07-16T13:02:53;25.20;93.80
9939;DHT22;5008;50.656;7.188;2023-07-16T13:05:20;25.00;93.10
9939;DHT22;5008;50.656;7.188;2023-07-16T13:07:47;25.00;93.40
9939;DHT22;5008;50.656;7.188;2023-07-16T13:10:14;24.90;94.40
9939;DHT22;5008;50.656;7.188;2023-07-16T13:12:42;24.90;92.90
9939;DHT22;5008;50.656;7.188;2023-07-16T13:15:10;24.90;92.80
9939;DHT22;5008;50.656;7.188;2023-07-16T13:17:38;25.10;93.90
9939;DHT22;5008;50.656;7.188;2023-07-16T13:20:06;25.10;92.90
9939;DHT22;5008;50.656;7.188;2023-07-16T13:22:33;25.30;92.30
9939;DHT22;5008;50.656;7.188;2023-07-16T13:24:59;25.50;92.40
9939;DHT22;5008;50.656;7.188;2023-07-16T13:27:26;25.40;92.90
9939;DHT22;5008;50.656;7.188;2023-07-16T13:29:54;25.50;92.80
9939;DHT22;5008;50.656;7.188;2023-07-16T13:32:21;26.00;93.00
9939;DHT22;5008;50.656;7.188;2023-07-16T13:34:48;27.30;91.10
9939;DHT22;5008;50.656;7.188;2023-07-16T13:37:15;27.80;89.90
9939;DHT22;5008;50.656;7.188;2023-07-16T13:39:42;28.10;89.60
9939;DHT22;5008;50.656;7.188;2023-07-16T13:42:11;27.50;89.00
9939;DHT22;5008;50.656;7.188;2023-07-16T13:44:37;26.90;90.10
9939;DHT22;5008;50.656;7.188;2023-07-16T13:47:06;26.50;90.60
9939;DHT22;5008;50.656;7.188;2023-07-16T13:49:32;26.20;91.00
9939;DHT22;5008;50.656;7.188;2023-07-16T13:51:59;26.00;91.50
9939;DHT22;5008;50.656;7.188;2023-07-16T13:54:26;25.80;91.90
9939;DHT22;5008;50.656;7.188;2023-07-16T13:56:53;25.80;91.80
9939;DHT22;5008;50.656;7.188;2023-07-16T13:59:20;25.80;92.00
9939;DHT22;5008;50.656;7.188;2023-07-16T14:01:47;25.80;92.30
9939;DHT22;5008;50.656;7.188;2023-07-16T14:04:15;25.80;91.00
9939;DHT22;5008;50.656;7.188;2023-07-16T14:06:42;25.70;91.30
9939;DHT22;5008;50.656;7.188;2023-07-16T14:09:08;25.70;91.40
9939;DHT22;5008;50.656;7.188;2023-07-16T14:11:35;25.80;91.50
9939;DHT22;5008;50.656;7.188;2023-07-16T14:14:02;25.70;91.30
9939;DHT22;5008;50.656;7.188;2023-07-16T14:16:29;25.90;90.90
9939;DHT22;5008;50.656;7.188;2023-07-16T14:18:55;25.90;91.20
9939;DHT22;5008;50.656;7.188;2023-07-16T14:21:24;25.80;90.70
9939;DHT22;5008;50.656;7.188;2023-07-16T14:23:51;25.80;90.60
9939;DHT22;5008;50.656;7.188;2023-07-16T14:26:18;25.80;91.30
9939;DHT22;5008;50.656;7.188;2023-07-16T14:28:45;25.60;91.10
9939;DHT22;5008;50.656;7.188;2023-07-16T14:31:11;25.60;91.00
9939;DHT22;5008;50.656;7.188;2023-07-16T14:33:38;25.60;90.50
9939;DHT22;5008;50.656;7.188;2023-07-16T14:36:05;25.70;90.60
9939;DHT22;5008;50.656;7.188;2023-07-16T14:38:33;25.70;91.90
9939;DHT22;5008;50.656;7.188;2023-07-16T14:41:00;25.60;90.40
9939;DHT22;5008;50.656;7.188;2023-07-16T14:43:27;25.50;90.60
9939;DHT22;5008;50.656;7.188;2023-07-16T14:45:54;25.40;91.10
9939;DHT22;5008;50.656;7.188;2023-07-16T14:48:20;25.30;91.00
9939;DHT22;5008;50.656;7.188;2023-07-16T14:50:48;25.10;90.70
9939;DHT22;5008;50.656;7.188;2023-07-16T14:53:15;25.00;91.10
9939;DHT22;5008;50.656;7.188;2023-07-16T14:55:47;25.00;91.40
9939;DHT22;5008;50.656;7.188;2023-07-16T14:58:14;25.10;91.70
9939;DHT22;5008;50.656;7.188;2023-07-16T15:00:41;25.00;91.40
9939;DHT22;5008;50.656;7.188;2023-07-16T15:03:08;25.10;92.10
9939;DHT22;5008;50.656;7.188;2023-07-16T15:05:36;25.50;90.70
9939;DHT22;5008;50.656;7.188;2023-07-16T15:08:03;25.50;91.40
9939;DHT22;5008;50.656;7.188;2023-07-16T15:10:30;25.50;90.80
9939;DHT22;5008;50.656;7.188;2023-07-16T15:12:58;25.40;91.10
9939;DHT22;5008;50.656;7.188;2023-07-16T15:15:25;25.40;90.70
9939;DHT22;5008;50.656;7.188;2023-07-16T15:17:52;25.30;90.80
9939;DHT22;5008;50.656;7.188;2023-07-16T15:20:19;25.30;90.90
9939;DHT22;5008;50.656;7.188;2023-07-16T15:22:48;25.30;90.60
9939;DHT22;5008;50.656;7.188;2023-07-16T15:25:14;25.40;90.60
9939;DHT22;5008;50.656;7.188;2023-07-16T15:27:41;25.30;90.40
9939;DHT22;5008;50.656;7.188;2023-07-16T15:30:34;25.40;91.00
9939;DHT22;5008;50.656;7.188;2023-07-16T15:33:04;25.40;91.00
9939;DHT22;5008;50.656;7.188;2023-07-16T15:35:35;25.30;90.60
9939;DHT22;5008;50.656;7.188;2023-07-16T15:38:02;25.20;91.40
9939;DHT22;5008;50.656;7.188;2023-07-16T15:40:51;25.30;92.00
9939;DHT22;5008;50.656;7.188;2023-07-16T15:43:19;25.70;90.50
9939;DHT22;5008;50.656;7.188;2023-07-16T15:45:47;25.60;91.00
9939;DHT22;5008;50.656;7.188;2023-07-16T15:48:14;25.50;90.60
9939;DHT22;5008;50.656;7.188;2023-07-16T15:50:43;25.40;92.30
9939;DHT22;5008;50.656;7.188;2023-07-16T15:53:10;25.40;91.10
9939;DHT22;5008;50.656;7.188;2023-07-16T15:55:37;25.30;91.20
9939;DHT22;5008;50.656;7.188;2023-07-16T15:58:03;25.20;91.40
9939;DHT22;5008;50.656;7.188;2023-07-16T16:00:32;25.30;91.20
9939;DHT22;5008;50.656;7.188;2023-07-16T16:03:01;25.30;90.90
9939;DHT22;5008;50.656;7.188;2023-07-16T16:05:30;25.40;91.10
9939;DHT22;5008;50.656;7.188;2023-07-16T16:08:11;25.70;90.80
9939;DHT22;5008;50.656;7.188;2023-07-16T16:10:39;26.20;90.30
9939;DHT22;5008;50.656;7.188;2023-07-16T16:13:11;26.90;91.00
9939;DHT22;5008;50.656;7.188;2023-07-16T16:15:39;27.30;87.70
9939;DHT22;5008;50.656;7.188;2023-07-16T16:18:08;27.30;86.60
9939;DHT22;5008;50.656;7.188;2023-07-16T16:20:36;28.00;86.50
9939;DHT22;5008;50.656;7.188;2023-07-16T16:23:03;28.60;85.00
9939;DHT22;5008;50.656;7.188;2023-07-16T16:25:31;29.30;83.30
9939;DHT22;5008;50.656;7.188;2023-07-16T16:27:59;29.00;83.90
9939;DHT22;5008;50.656;7.188;2023-07-16T16:30:26;28.60;83.30
9939;DHT22;5008;50.656;7.188;2023-07-16T16:32:54;28.20;83.10
9939;DHT22;5008;50.656;7.188;2023-07-16T16:35:22;27.50;84.80
9939;DHT22;5008;50.656;7.188;2023-07-16T16:37:49;26.90;84.90
9939;DHT22;5008;50.656;7.188;2023-07-16T16:40:23;26.40;87.00
9939;DHT22;5008;50.656;7.188;2023-07-16T16:42:59;26.20;87.40
9939;DHT22;5008;50.656;7.188;2023-07-16T16:45:26;26.70;87.70
9939;DHT22;5008;50.656;7.188;2023-07-16T16:47:53;26.90;87.00
9939;DHT22;5008;50.656;7.188;2023-07-16T16:50:24;27.30;86.10
9939;DHT22;5008;50.656;7.188;2023-07-16T16:52:50;27.70;85.40
9939;DHT22;5008;50.656;7.188;2023-07-16T16:55:17;27.80;85.20
9939;DHT22;5008;50.656;7.188;2023-07-16T16:57:44;27.40;85.00
9939;DHT22;5008;50.656;7.188;2023-07-16T17:00:12;27.00;87.80
9939;DHT22;5008;50.656;7.188;2023-07-16T17:02:39;26.80;86.50
9939;DHT22;5008;50.656;7.188;2023-07-16T17:05:07;26.50;87.40
9939;DHT22;5008;50.656;7.188;2023-07-16T17:07:36;26.20;93.10
9939;DHT22;5008;50.656;7.188;2023-07-16T17:10:03;25.90;88.50
9939;DHT22;5008;50.656;7.188;2023-07-16T17:12:31;25.70;90.70
9939;DHT22;5008;50.656;7.188;2023-07-16T17:14:57;25.70;90.10
9939;DHT22;5008;50.656;7.188;2023-07-16T17:17:24;25.50;94.40
9939;DHT22;5008;50.656;7.188;2023-07-16T17:19:54;25.30;91.00
9939;DHT22;5008;50.656;7.188;2023-07-16T17:22:21;25.30;90.40
9939;DHT22;5008;50.656;7.188;2023-07-16T17:24:49;25.30;89.10
9939;DHT22;5008;50.656;7.188;2023-07-16T17:27:16;25.20;89.90
9939;DHT22;5008;50.656;7.188;2023-07-16T17:29:43;25.00;89.70
9939;DHT22;5008;50.656;7.188;2023-07-16T17:32:10;24.90;89.90
9939;DHT22;5008;50.656;7.188;2023-07-16T17:34:38;24.70;91.30
9939;DHT22;5008;50.656;7.188;2023-07-16T17:37:06;24.50;94.60
9939;DHT22;5008;50.656;7.188;2023-07-16T17:39:33;24.60;89.70
9939;DHT22;5008;50.656;7.188;2023-07-16T17:42:02;24.50;89.60
9939;DHT22;5008;50.656;7.188;2023-07-16T17:44:29;24.50;90.70
9939;DHT22;5008;50.656;7.188;2023-07-16T17:46:56;24.40;90.40
9939;DHT22;5008;50.656;7.188;2023-07-16T17:49:23;24.40;89.90
9939;DHT22;5008;50.656;7.188;2023-07-16T17:51:50;24.30;90.30
9939;DHT22;5008;50.656;7.188;2023-07-16T17:54:17;24.30;89.60
9939;DHT22;5008;50.656;7.188;2023-07-16T17:56:50;24.20;90.10
9939;DHT22;5008;50.656;7.188;2023-07-16T17:59:20;24.20;89.90
9939;DHT22;5008;50.656;7.188;2023-07-16T18:01:47;24.10;91.00
9939;DHT22;5008;50.656;7.188;2023-07-16T18:04:15;24.10;90.40
9939;DHT22;5008;50.656;7.188;2023-07-16T18:06:42;24.00;90.60
9939;DHT22;5008;50.656;7.188;2023-07-16T18:09:11;23.90;91.00
9939;DHT22;5008;50.656;7.188;2023-07-16T18:11:53;23.90;91.50
9939;DHT22;5008;50.656;7.188;2023-07-16T18:14:23;23.80;91.40
9939;DHT22;5008;50.656;7.188;2023-07-16T18:16:49;23.80;93.70
9939;DHT22;5008;50.656;7.188;2023-07-16T18:19:16;23.70;95.00
9939;DHT22;5008;50.656;7.188;2023-07-16T18:21:44;23.70;98.20
9939;DHT22;5008;50.656;7.188;2023-07-16T18:24:12;23.50;94.80
9939;DHT22;5008;50.656;7.188;2023-07-16T18:26:39;23.50;96.40
9939;DHT22;5008;50.656;7.188;2023-07-16T18:29:10;23.50;98.40
9939;DHT22;5008;50.656;7.188;2023-07-16T18:31:38;23.50;96.40
9939;DHT22;5008;50.656;7.188;2023-07-16T18:34:05;23.40;96.10
9939;DHT22;5008;50.656;7.188;2023-07-16T18:36:31;23.40;95.90
9939;DHT22;5008;50.656;7.188;2023-07-16T18:38:58;23.30;96.30
9939;DHT22;5008;50.656;7.188;2023-07-16T18:41:26;23.30;98.90
9939;DHT22;5008;50.656;7.188;2023-07-16T18:43:53;23.20;95.30
9939;DHT22;5008;50.656;7.188;2023-07-16T18:46:19;23.30;96.00
9939;DHT22;5008;50.656;7.188;2023-07-16T18:48:47;23.10;99.70
9939;DHT22;5008;50.656;7.188;2023-07-16T18:51:14;23.10;97.00
9939;DHT22;5008;50.656;7.188;2023-07-16T18:53:41;23.00;96.40
9939;DHT22;5008;50.656;7.188;2023-07-16T18:56:08;22.90;96.60
9939;DHT22;5008;50.656;7.188;2023-07-16T18:58:35;22.80;96.60
9939;DHT22;5008;50.656;7.188;2023-07-16T19:01:04;22.80;97.20
9939;DHT22;5008;50.656;7.188;2023-07-16T19:03:31;22.60;98.20
9939;DHT22;5008;50.656;7.188;2023-07-16T19:06:02;22.60;98.40
9939;DHT22;5008;50.656;7.188;2023-07-16T19:08:29;22.50;98.00
9939;DHT22;5008;50.656;7.188;2023-07-16T19:10:56;22.40;98.70
9939;DHT22;5008;50.656;7.188;2023-07-16T19:13:23;22.30;97.90
9939;DHT22;5008;50.656;7.188;2023-07-16T19:15:50;22.30;98.70
9939;DHT22;5008;50.656;7.188;2023-07-16T19:21:18;22.20;98.40
9939;DHT22;5008;50.656;7.188;2023-07-16T19:23:45;22.10;98.80
9939;DHT22;5008;50.656;7.188;2023-07-16T19:26:11;22.10;98.20
9939;DHT22;5008;50.656;7.188;2023-07-16T19:28:38;22.00;98.20
9939;DHT22;5008;50.656;7.188;2023-07-16T19:31:05;22.00;97.70
9939;DHT22;5008;50.656;7.188;2023-07-16T19:33:32;22.00;97.40
9939;DHT22;5008;50.656;7.188;2023-07-16T19:35:59;21.90;96.20
9939;DHT22;5008;50.656;7.188;2023-07-16T19:38:33;21.90;96.40
9939;DHT22;5008;50.656;7.188;2023-07-16T19:41:02;21.90;97.10
9939;DHT22;5008;50.656;7.188;2023-07-16T19:43:29;21.80;97.80
9939;DHT22;5008;50.656;7.188;2023-07-16T19:46:00;21.70;98.30
9939;DHT22;5008;50.656;7.188;2023-07-16T19:48:27;21.70;97.40
9939;DHT22;5008;50.656;7.188;2023-07-16T19:50:54;21.60;98.40
9939;DHT22;5008;50.656;7.188;2023-07-16T19:53:22;21.50;99.20
9939;DHT22;5008;50.656;7.188;2023-07-16T19:55:57;21.40;99.00